createdAt,value
2023-05-17T00:02:23.916Z,1.70
2023-05-17T00:06:26.925Z,1.83
2023-05-17T00:10:28.468Z,2.07
2023-05-17T00:14:29.944Z,1.80
2023-05-17T00:18:31.490Z,1.83
2023-05-17T00:22:34.514Z,1.90
2023-05-17T00:26:35.984Z,2.20
2023-05-17T00:30:37.662Z,2.00
2023-05-17T00:34:39.119Z,2.13
2023-05-17T00:38:42.075Z,2.23
2023-05-17T00:42:43.583Z,2.47
2023-05-17T00:46:45.001Z,2.00
2023-05-17T00:50:46.980Z,1.87
2023-05-17T00:54:51.482Z,2.30
2023-05-17T00:58:53.647Z,2.07
2023-05-17T01:02:55.170Z,2.10
2023-05-17T01:06:56.758Z,2.40
2023-05-17T01:11:11.701Z,2.50
2023-05-17T01:15:15.547Z,2.47
2023-05-17T01:19:36.282Z,2.40
2023-05-17T01:23:51.429Z,2.50
2023-05-17T01:27:58.355Z,2.70
2023-05-17T01:32:00.767Z,2.80
2023-05-17T01:36:02.500Z,2.90
2023-05-17T01:40:05.452Z,2.60
2023-05-17T01:44:18.209Z,2.90
2023-05-17T01:48:23.673Z,2.80
2023-05-17T01:52:31.763Z,2.47
2023-05-17T01:56:34.764Z,2.90
2023-05-17T02:00:39.627Z,2.67
2023-05-17T02:04:42.769Z,2.70
2023-05-17T02:08:44.226Z,2.80
2023-05-17T02:12:45.851Z,2.97
2023-05-17T02:16:48.919Z,3.20
2023-05-17T02:20:50.375Z,2.73
2023-05-17T02:24:51.838Z,3.37
2023-05-17T02:28:53.530Z,3.20
2023-05-17T02:32:56.547Z,3.10
2023-05-17T02:36:58.095Z,3.20
2023-05-17T02:40:59.546Z,3.40
2023-05-17T02:45:00.960Z,3.47
2023-05-17T02:49:03.870Z,3.10
2023-05-17T02:53:05.414Z,2.70
2023-05-17T02:57:06.932Z,2.70
2023-05-17T03:01:08.395Z,2.80
2023-05-17T03:05:11.352Z,3.37
2023-05-17T03:09:13.171Z,3.50
2023-05-17T03:13:14.650Z,3.17
2023-05-17T03:17:18.926Z,3.07
2023-05-17T03:21:26.750Z,3.07
2023-05-17T03:25:28.621Z,3.30
2023-05-17T03:29:30.212Z,3.20
2023-05-17T03:33:31.856Z,3.07
2023-05-17T03:37:34.832Z,3.17
2023-05-17T03:41:36.325Z,3.67
2023-05-17T03:45:37.769Z,3.77
2023-05-17T03:49:39.285Z,3.77
2023-05-17T03:53:42.310Z,4.07
2023-05-17T03:57:43.740Z,3.83
2023-05-17T04:01:45.373Z,5.00
2023-05-17T04:05:46.896Z,4.97
2023-05-17T04:09:49.678Z,5.13
2023-05-17T04:13:51.167Z,5.13
2023-05-17T04:17:52.834Z,4.83
2023-05-17T04:21:54.391Z,4.63
2023-05-17T04:25:57.276Z,5.00
2023-05-17T04:29:58.784Z,5.30
2023-05-17T04:34:00.323Z,5.73
2023-05-17T04:38:01.881Z,5.50
2023-05-17T04:42:04.796Z,5.63
2023-05-17T04:46:06.376Z,6.67
2023-05-17T04:50:08.301Z,5.77
2023-05-17T04:54:09.762Z,5.93
2023-05-17T04:58:12.553Z,5.80
2023-05-17T05:02:14.021Z,6.70
2023-05-17T05:06:15.496Z,6.30
2023-05-17T05:10:17.241Z,5.70
2023-05-17T05:14:20.129Z,6.00
2023-05-17T05:18:21.738Z,6.47
2023-05-17T05:22:23.420Z,6.37
2023-05-17T05:26:24.992Z,6.27
2023-05-17T05:30:27.801Z,5.73
2023-05-17T05:34:29.284Z,7.03
2023-05-17T05:38:30.841Z,6.67
2023-05-17T05:42:32.318Z,6.50
2023-05-17T05:46:35.092Z,6.50
2023-05-17T05:50:36.613Z,7.83
2023-05-17T05:54:38.118Z,7.23
2023-05-17T05:58:39.678Z,7.50
2023-05-17T06:02:42.550Z,7.00
2023-05-17T06:06:44.187Z,7.30
2023-05-17T06:10:45.863Z,7.57
2023-05-17T06:14:47.388Z,8.33
2023-05-17T06:18:51.410Z,11.40
2023-05-17T06:22:53.288Z,12.23
2023-05-17T06:26:54.699Z,11.53
2023-05-17T06:30:56.129Z,12.27
2023-05-17T06:34:59.134Z,12.87
2023-05-17T06:39:00.631Z,12.10
2023-05-17T06:43:02.285Z,11.07
2023-05-17T06:47:04.038Z,10.77
2023-05-17T06:51:06.892Z,10.00
2023-05-17T06:55:08.784Z,9.83
2023-05-17T06:59:10.234Z,8.23
2023-05-17T07:03:11.758Z,8.03
2023-05-17T07:07:14.711Z,7.97
2023-05-17T07:11:16.119Z,7.90
2023-05-17T07:15:17.629Z,7.70
2023-05-17T07:19:19.339Z,7.60
2023-05-17T07:23:22.132Z,7.93
2023-05-17T07:27:23.697Z,7.60
2023-05-17T07:31:25.149Z,7.50
2023-05-17T07:35:26.738Z,6.30
2023-05-17T07:39:29.769Z,5.77
2023-05-17T07:43:31.229Z,5.67
2023-05-17T07:47:32.796Z,5.43
2023-05-17T07:51:34.450Z,4.90
2023-05-17T07:55:37.250Z,4.47
2023-05-17T07:59:38.685Z,4.63
2023-05-17T08:03:40.164Z,4.40
2023-05-17T08:07:41.778Z,4.10
2023-05-17T08:11:44.507Z,4.53
2023-05-17T08:15:46.057Z,4.57
2023-05-17T08:19:47.971Z,4.00
2023-05-17T08:23:49.507Z,3.53
2023-05-17T08:27:52.434Z,3.63
2023-05-17T08:31:54.559Z,3.40
2023-05-17T08:35:56.273Z,2.93
2023-05-17T08:39:57.869Z,3.40
2023-05-17T08:44:02.215Z,3.07
2023-05-17T08:48:04.554Z,2.87
2023-05-17T08:52:07.874Z,2.80
2023-05-17T08:56:11.270Z,2.70
2023-05-17T09:00:19.307Z,3.13
2023-05-17T09:04:21.100Z,2.80
2023-05-17T09:08:23.238Z,3.10
2023-05-17T09:12:25.784Z,3.03
2023-05-17T09:16:29.628Z,2.73
2023-05-17T09:20:31.275Z,3.00
2023-05-17T09:24:33.132Z,2.87
2023-05-17T09:28:39.851Z,2.90
2023-05-17T09:36:55.724Z,2.90
2023-05-17T09:40:57.241Z,2.43
2023-05-17T09:44:59.185Z,2.60
2023-05-17T09:49:04.294Z,3.20
2023-05-17T09:53:06.159Z,2.57
2023-05-17T09:57:07.763Z,2.40
2023-05-17T10:01:10.038Z,2.70
2023-05-17T10:05:13.355Z,2.93
2023-05-17T10:09:14.821Z,2.67
2023-05-17T10:13:19.136Z,3.03
2023-05-17T10:17:20.756Z,3.00
2023-05-17T10:21:23.837Z,2.80
2023-05-17T10:25:26.003Z,2.67
2023-05-17T10:29:28.872Z,3.00
2023-05-17T10:33:32.039Z,2.33
2023-05-17T10:37:35.413Z,2.60
2023-05-17T10:41:40.353Z,2.80
2023-05-17T10:45:42.396Z,3.00
2023-05-17T10:49:44.549Z,3.03
2023-05-17T10:54:08.902Z,2.97
2023-05-17T10:58:16.471Z,2.50
2023-05-17T11:02:23.853Z,2.80
2023-05-17T11:06:26.004Z,2.90
2023-05-17T11:10:29.043Z,2.93
2023-05-17T11:14:43.531Z,2.50
2023-05-17T11:18:49.864Z,2.80
2023-05-17T11:22:57.779Z,2.90
2023-05-17T11:27:01.561Z,2.73
2023-05-17T11:31:03.305Z,2.83
2023-05-17T11:35:06.103Z,2.83
2023-05-17T11:39:14.213Z,2.60
2023-05-17T11:43:18.490Z,2.20
2023-05-17T11:47:20.043Z,2.60
2023-05-17T11:51:24.690Z,2.50
2023-05-17T11:55:27.314Z,2.60
2023-05-17T11:59:37.021Z,2.38
2023-05-17T12:03:38.627Z,2.50
2023-05-17T12:07:40.148Z,2.40
2023-05-17T12:11:41.719Z,2.63
2023-05-17T12:15:50.083Z,2.23
2023-05-17T12:19:54.905Z,2.57
2023-05-17T12:23:57.405Z,2.70
2023-05-17T12:28:15.803Z,2.33
2023-05-17T12:32:19.022Z,2.33
2023-05-17T12:36:22.197Z,2.75
2023-05-17T12:40:23.992Z,2.95
2023-05-17T12:44:25.628Z,2.88
2023-05-17T12:48:28.599Z,2.80
2023-05-17T12:52:33.999Z,2.35
2023-05-17T12:56:35.607Z,2.35
2023-05-17T13:00:37.127Z,2.90
2023-05-17T13:04:40.149Z,2.40
2023-05-17T13:08:44.059Z,2.95
2023-05-17T13:12:54.905Z,2.67
2023-05-17T13:16:56.469Z,2.17
2023-05-17T13:20:59.256Z,2.20
2023-05-17T13:25:02.901Z,2.17
2023-05-17T13:29:04.412Z,2.40
2023-05-17T13:33:06.231Z,2.40
2023-05-17T13:37:12.141Z,2.30
2023-05-17T13:41:14.109Z,2.60
2023-05-17T13:45:15.882Z,2.57
2023-05-17T13:49:17.599Z,2.43
2023-05-17T13:53:20.534Z,2.17
2023-05-17T13:57:21.973Z,2.40
2023-05-17T14:01:23.421Z,2.37
2023-05-17T14:05:24.945Z,2.40
2023-05-17T14:09:27.802Z,2.23
2023-05-17T14:13:29.327Z,2.20
2023-05-17T14:17:30.898Z,2.30
2023-05-17T14:21:32.704Z,2.40
2023-05-17T14:25:35.628Z,2.17
2023-05-17T14:29:37.087Z,2.10
2023-05-17T14:33:38.690Z,1.87
2023-05-17T14:37:40.390Z,2.57
2023-05-17T14:41:44.880Z,2.27
2023-05-17T14:45:46.633Z,2.40
2023-05-17T14:49:48.121Z,2.00
2023-05-17T14:53:49.603Z,2.50
2023-05-17T14:57:52.401Z,2.20
2023-05-17T15:01:54.133Z,2.13
2023-05-17T15:05:56.294Z,2.30
2023-05-17T15:09:58.991Z,2.40
2023-05-17T15:14:01.784Z,2.70
2023-05-17T15:18:03.516Z,2.50
2023-05-17T15:22:05.184Z,2.40
2023-05-17T15:26:06.951Z,2.60
2023-05-17T15:30:13.214Z,2.63
2023-05-17T15:34:15.048Z,2.50
2023-05-17T15:38:16.610Z,2.70
2023-05-17T15:42:18.096Z,2.30
2023-05-17T15:46:20.957Z,2.40
2023-05-17T15:50:22.964Z,2.20
2023-05-17T15:54:24.622Z,2.30
2023-05-17T15:58:26.699Z,2.23
2023-05-17T16:02:30.220Z,2.50
2023-05-17T16:06:31.709Z,2.60
2023-05-17T16:10:33.299Z,2.40
2023-05-17T16:14:35.632Z,2.40
2023-05-17T16:18:38.586Z,2.20
2023-05-17T16:22:42.319Z,2.43
2023-05-17T16:26:43.792Z,2.80
2023-05-17T16:30:45.348Z,2.90
2023-05-17T16:34:48.143Z,2.50
2023-05-17T16:38:49.597Z,2.20
2023-05-17T16:42:51.008Z,2.27
2023-05-17T16:46:52.501Z,2.43
2023-05-17T16:50:56.134Z,2.43
2023-05-17T16:54:57.831Z,2.50
2023-05-17T16:58:59.354Z,2.53
2023-05-17T17:03:01.229Z,2.40
2023-05-17T17:07:04.422Z,2.37
2023-05-17T17:11:06.104Z,2.57
2023-05-17T17:15:08.854Z,2.40
2023-05-17T17:19:10.548Z,2.00
2023-05-17T17:23:13.321Z,2.60
2023-05-17T17:27:14.734Z,2.20
2023-05-17T17:31:16.184Z,1.90
2023-05-17T17:35:17.648Z,2.40
2023-05-17T17:39:20.535Z,2.20
2023-05-17T17:43:23.616Z,2.20
2023-05-17T17:47:25.180Z,2.20
2023-05-17T17:51:26.733Z,2.67
2023-05-17T17:55:29.554Z,2.40
2023-05-17T17:59:31.056Z,2.03
2023-05-17T18:03:32.543Z,2.10
2023-05-17T18:07:34.172Z,2.57
2023-05-17T18:11:37.010Z,2.40
2023-05-17T18:15:38.567Z,2.73
2023-05-17T18:19:40.029Z,2.20
2023-05-17T18:23:41.489Z,2.60
2023-05-17T18:27:44.278Z,2.60
2023-05-17T18:31:45.869Z,2.60
2023-05-17T18:35:47.403Z,2.40
2023-05-17T18:39:48.878Z,2.77
2023-05-17T18:43:51.765Z,2.47
2023-05-17T18:47:53.392Z,2.50
2023-05-17T18:51:54.847Z,2.70
2023-05-17T18:55:57.946Z,2.30
2023-05-17T19:00:00.796Z,2.10
2023-05-17T19:04:02.616Z,2.87
2023-05-17T19:08:04.207Z,4.93
2023-05-17T19:12:06.544Z,3.60
2023-05-17T19:16:09.441Z,3.17
2023-05-17T19:20:11.533Z,3.40
2023-05-17T19:24:13.003Z,3.00
2023-05-17T19:28:14.442Z,3.07
2023-05-17T19:32:17.513Z,2.87
2023-05-17T19:36:18.992Z,3.60
2023-05-17T19:40:20.841Z,3.07
2023-05-17T19:44:22.342Z,2.53
2023-05-17T19:48:25.400Z,2.80
2023-05-17T19:52:26.885Z,4.67
2023-05-17T19:56:28.454Z,3.10
2023-05-17T20:00:30.197Z,3.23
2023-05-17T20:04:33.212Z,3.10
2023-05-17T20:08:34.716Z,2.70
2023-05-17T20:12:36.259Z,3.20
2023-05-17T20:16:37.808Z,2.63
2023-05-17T20:20:40.784Z,2.50
2023-05-17T20:24:42.291Z,2.63
2023-05-17T20:28:44.325Z,2.80
2023-05-17T20:32:46.528Z,2.73
2023-05-17T20:36:49.302Z,2.90
2023-05-17T20:40:50.792Z,3.20
2023-05-17T20:44:52.293Z,2.60
2023-05-17T20:48:53.772Z,3.20
2023-05-17T20:52:56.557Z,2.80
2023-05-17T20:56:58.467Z,2.80
2023-05-17T21:01:00.089Z,3.20
2023-05-17T21:05:01.641Z,2.87
2023-05-17T21:09:04.861Z,2.70
2023-05-17T21:13:06.533Z,2.67
2023-05-17T21:17:08.137Z,3.00
2023-05-17T21:21:09.620Z,2.50
2023-05-17T21:25:12.530Z,2.43
2023-05-17T21:29:14.063Z,2.93
2023-05-17T21:33:15.678Z,2.60
2023-05-17T21:37:17.176Z,2.60
2023-05-17T21:41:19.982Z,2.80
2023-05-17T21:45:21.587Z,2.80
2023-05-17T21:49:23.110Z,2.67
2023-05-17T21:53:24.552Z,3.03
2023-05-17T21:57:27.365Z,2.70
2023-05-17T22:01:28.848Z,2.77
2023-05-17T22:05:30.439Z,2.60
2023-05-17T22:09:32.035Z,2.87
2023-05-17T22:13:34.876Z,2.97
2023-05-17T22:17:47.821Z,3.17
2023-05-17T22:21:53.720Z,3.03
2023-05-17T22:25:55.208Z,2.50
2023-05-17T22:29:58.230Z,2.17
2023-05-17T22:33:59.794Z,2.50
2023-05-17T22:38:01.452Z,3.10
2023-05-17T22:42:03.302Z,2.50
2023-05-17T22:46:06.506Z,2.73
2023-05-17T22:50:09.399Z,2.70
2023-05-17T22:54:10.940Z,2.77
2023-05-17T22:58:12.347Z,2.50
2023-05-17T23:02:15.203Z,2.70
2023-05-17T23:06:16.801Z,2.83
2023-05-17T23:10:18.271Z,2.63
2023-05-17T23:14:19.701Z,2.87
2023-05-17T23:18:22.572Z,2.90
2023-05-17T23:22:24.217Z,2.90
2023-05-17T23:26:25.676Z,2.83
2023-05-17T23:30:27.354Z,3.00
2023-05-17T23:34:30.106Z,2.53
2023-05-17T23:38:31.540Z,2.60
2023-05-17T23:42:33.158Z,2.70
2023-05-17T23:46:34.625Z,3.00
2023-05-17T23:50:37.741Z,2.83
2023-05-17T23:54:39.420Z,2.70
2023-05-17T23:58:40.835Z,2.73
